sensor_id;sensor_type;location;lat;lon;timestamp;temperature;humidity
36690;DHT22;22676;51.120;3.702;2022-10-16T00:00:12;22.10;54.80
36690;DHT22;22676;51.120;3.702;2022-10-16T00:03:03;22.10;54.80
36690;DHT22;22676;51.120;3.702;2022-10-16T00:06:09;22.00;54.20
36690;DHT22;22676;51.120;3.702;2022-10-16T00:08:59;22.00;54.30
36690;DHT22;22676;51.120;3.702;2022-10-16T00:11:50;22.00;55.00
36690;DHT22;22676;51.120;3.702;2022-10-16T00:14:41;22.00;55.00
36690;DHT22;22676;51.120;3.702;2022-10-16T00:17:32;22.00;54.90
36690;DHT22;22676;51.120;3.702;2022-10-16T00:20:22;22.00;55.00
36690;DHT22;22676;51.120;3.702;2022-10-16T00:23:12;22.10;55.00
36690;DHT22;22676;51.120;3.702;2022-10-16T00:26:04;22.10;55.00
36690;DHT22;22676;51.120;3.702;2022-10-16T00:28:55;22.10;55.00
36690;DHT22;22676;51.120;3.702;2022-10-16T00:31:45;22.10;55.00
36690;DHT22;22676;51.120;3.702;2022-10-16T00:34:36;22.10;55.00
36690;DHT22;22676;51.120;3.702;2022-10-16T00:37:27;22.10;54.90
36690;DHT22;22676;51.120;3.702;2022-10-16T00:40:17;22.10;55.00
36690;DHT22;22676;51.120;3.702;2022-10-16T00:43:12;22.10;55.10
36690;DHT22;22676;51.120;3.702;2022-10-16T00:46:08;22.10;55.10
36690;DHT22;22676;51.120;3.702;2022-10-16T00:49:11;22.10;55.10
36690;DHT22;22676;51.120;3.702;2022-10-16T00:52:02;22.10;55.00
36690;DHT22;22676;51.120;3.702;2022-10-16T00:54:54;22.10;55.10
36690;DHT22;22676;51.120;3.702;2022-10-16T00:57:44;22.10;55.00
36690;DHT22;22676;51.120;3.702;2022-10-16T01:00:36;22.10;55.00
36690;DHT22;22676;51.120;3.702;2022-10-16T06:10:07;21.70;55.80
36690;DHT22;22676;51.120;3.702;2022-10-16T06:12:34;21.70;55.70
36690;DHT22;22676;51.120;3.702;2022-10-16T06:15:13;21.80;55.60
36690;DHT22;22676;51.120;3.702;2022-10-16T07:35:55;22.30;56.80
36690;DHT22;22676;51.120;3.702;2022-10-16T07:38:46;22.30;56.80
36690;DHT22;22676;51.120;3.702;2022-10-16T07:41:37;22.30;57.00
36690;DHT22;22676;51.120;3.702;2022-10-16T07:44:28;22.30;57.10
36690;DHT22;22676;51.120;3.702;2022-10-16T07:47:19;22.40;57.50
36690;DHT22;22676;51.120;3.702;2022-10-16T07:50:09;22.40;57.40
36690;DHT22;22676;51.120;3.702;2022-10-16T07:53:00;22.40;57.20
36690;DHT22;22676;51.120;3.702;2022-10-16T07:55:51;22.40;57.20
36690;DHT22;22676;51.120;3.702;2022-10-16T07:58:42;22.50;57.20
36690;DHT22;22676;51.120;3.702;2022-10-16T08:01:32;22.40;57.20
36690;DHT22;22676;51.120;3.702;2022-10-16T08:04:37;22.40;57.30
36690;DHT22;22676;51.120;3.702;2022-10-16T08:07:28;22.40;57.00
36690;DHT22;22676;51.120;3.702;2022-10-16T08:10:20;22.40;56.80
36690;DHT22;22676;51.120;3.702;2022-10-16T08:13:11;22.40;56.80
36690;DHT22;22676;51.120;3.702;2022-10-16T08:16:02;22.30;57.10
36690;DHT22;22676;51.120;3.702;2022-10-16T08:18:53;22.30;56.80
36690;DHT22;22676;51.120;3.702;2022-10-16T08:21:46;22.40;56.70
36690;DHT22;22676;51.120;3.702;2022-10-16T08:24:37;22.40;56.60
36690;DHT22;22676;51.120;3.702;2022-10-16T08:27:34;22.40;56.50
36690;DHT22;22676;51.120;3.702;2022-10-16T08:30:25;22.40;56.40
36690;DHT22;22676;51.120;3.702;2022-10-16T08:33:16;22.30;56.30
36690;DHT22;22676;51.120;3.702;2022-10-16T08:36:07;22.40;56.30
36690;DHT22;22676;51.120;3.702;2022-10-16T08:38:58;22.40;56.20
36690;DHT22;22676;51.120;3.702;2022-10-16T08:42:07;22.40;56.20
36690;DHT22;22676;51.120;3.702;2022-10-16T08:51:37;22.40;55.90
36690;DHT22;22676;51.120;3.702;2022-10-16T08:54:34;22.40;55.80
36690;DHT22;22676;51.120;3.702;2022-10-16T08:57:26;22.50;55.80
36690;DHT22;22676;51.120;3.702;2022-10-16T09:00:17;22.50;55.80
36690;DHT22;22676;51.120;3.702;2022-10-16T09:08:35;22.50;55.90
36690;DHT22;22676;51.120;3.702;2022-10-16T09:11:21;22.50;55.80
36690;DHT22;22676;51.120;3.702;2022-10-16T09:16:23;22.60;55.70
36690;DHT22;22676;51.120;3.702;2022-10-16T09:21:19;22.50;55.70
36690;DHT22;22676;51.120;3.702;2022-10-16T09:23:46;22.50;55.50
36690;DHT22;22676;51.120;3.702;2022-10-16T09:26:13;22.50;55.80
36690;DHT22;22676;51.120;3.702;2022-10-16T09:28:39;22.50;55.70
36690;DHT22;22676;51.120;3.702;2022-10-16T09:31:05;22.50;55.50
36690;DHT22;22676;51.120;3.702;2022-10-16T09:33:33;22.50;55.90
36690;DHT22;22676;51.120;3.702;2022-10-16T09:36:00;22.40;55.90
36690;DHT22;22676;51.120;3.702;2022-10-16T09:38:31;22.50;55.40
36690;DHT22;22676;51.120;3.702;2022-10-16T09:41:18;22.50;55.60
36690;DHT22;22676;51.120;3.702;2022-10-16T09:44:05;22.60;55.80
36690;DHT22;22676;51.120;3.702;2022-10-16T09:50:25;22.70;55.70
36690;DHT22;22676;51.120;3.702;2022-10-16T10:12:03;22.70;57.50
36690;DHT22;22676;51.120;3.702;2022-10-16T10:14:55;22.70;57.00
36690;DHT22;22676;51.120;3.702;2022-10-16T10:17:48;22.60;56.50
36690;DHT22;22676;51.120;3.702;2022-10-16T10:20:39;22.60;56.50
36690;DHT22;22676;51.120;3.702;2022-10-16T10:23:30;22.60;57.00
36690;DHT22;22676;51.120;3.702;2022-10-16T10:26:22;22.60;56.10
36690;DHT22;22676;51.120;3.702;2022-10-16T10:29:17;22.50;56.10
36690;DHT22;22676;51.120;3.702;2022-10-16T10:32:17;22.50;56.20
36690;DHT22;22676;51.120;3.702;2022-10-16T10:35:16;22.50;56.20
36690;DHT22;22676;51.120;3.702;2022-10-16T10:41:20;22.70;56.50
36690;DHT22;22676;51.120;3.702;2022-10-16T11:02:40;23.00;54.60
36690;DHT22;22676;51.120;3.702;2022-10-16T11:18:08;23.10;54.80
36690;DHT22;22676;51.120;3.702;2022-10-16T11:33:25;23.00;53.90
36690;DHT22;22676;51.120;3.702;2022-10-16T12:19:23;22.90;52.90
36690;DHT22;22676;51.120;3.702;2022-10-16T12:22:17;22.90;52.80
36690;DHT22;22676;51.120;3.702;2022-10-16T12:25:19;22.80;53.10
36690;DHT22;22676;51.120;3.702;2022-10-16T12:28:20;22.70;52.60
36690;DHT22;22676;51.120;3.702;2022-10-16T12:31:11;22.60;52.70
36690;DHT22;22676;51.120;3.702;2022-10-16T12:34:02;22.60;52.80
36690;DHT22;22676;51.120;3.702;2022-10-16T12:36:53;22.50;52.90
36690;DHT22;22676;51.120;3.702;2022-10-16T12:40:32;22.50;54.00
36690;DHT22;22676;51.120;3.702;2022-10-16T12:43:24;22.40;54.70
36690;DHT22;22676;51.120;3.702;2022-10-16T12:52:03;22.30;52.10
36690;DHT22;22676;51.120;3.702;2022-10-16T12:54:57;22.40;52.10
36690;DHT22;22676;51.120;3.702;2022-10-16T12:58:03;22.40;52.10
36690;DHT22;22676;51.120;3.702;2022-10-16T13:00:57;22.40;51.60
36690;DHT22;22676;51.120;3.702;2022-10-16T17:50:29;22.90;59.30
36690;DHT22;22676;51.120;3.702;2022-10-16T19:40:15;22.50;62.30
36690;DHT22;22676;51.120;3.702;2022-10-16T19:43:06;22.60;62.20
36690;DHT22;22676;51.120;3.702;2022-10-16T19:46:01;22.60;61.60
36690;DHT22;22676;51.120;3.702;2022-10-16T19:48:55;22.70;62.20
36690;DHT22;22676;51.120;3.702;2022-10-16T19:51:46;22.70;61.70
36690;DHT22;22676;51.120;3.702;2022-10-16T19:54:37;22.70;61.60
36690;DHT22;22676;51.120;3.702;2022-10-16T19:57:28;22.70;61.70
36690;DHT22;22676;51.120;3.702;2022-10-16T20:00:18;22.70;61.70
36690;DHT22;22676;51.120;3.702;2022-10-16T20:03:08;22.80;61.70
36690;DHT22;22676;51.120;3.702;2022-10-16T20:05:59;22.80;61.80
36690;DHT22;22676;51.120;3.702;2022-10-16T20:08:50;22.80;61.80
36690;DHT22;22676;51.120;3.702;2022-10-16T20:11:42;22.80;61.80
36690;DHT22;22676;51.120;3.702;2022-10-16T20:14:33;22.70;61.00
36690;DHT22;22676;51.120;3.702;2022-10-16T20:17:23;22.70;61.00
36690;DHT22;22676;51.120;3.702;2022-10-16T20:20:14;22.60;61.80
36690;DHT22;22676;51.120;3.702;2022-10-16T20:23:05;22.60;61.90
36690;DHT22;22676;51.120;3.702;2022-10-16T20:25:56;22.70;62.20
36690;DHT22;22676;51.120;3.702;2022-10-16T20:28:50;22.70;61.90
36690;DHT22;22676;51.120;3.702;2022-10-16T20:31:41;22.70;61.80
36690;DHT22;22676;51.120;3.702;2022-10-16T20:34:32;22.70;61.80
36690;DHT22;22676;51.120;3.702;2022-10-16T21:06:37;22.80;62.10
36690;DHT22;22676;51.120;3.702;2022-10-16T21:09:28;22.80;62.20
36690;DHT22;22676;51.120;3.702;2022-10-16T21:12:19;22.80;62.20
36690;DHT22;22676;51.120;3.702;2022-10-16T21:15:10;22.70;61.60
36690;DHT22;22676;51.120;3.702;2022-10-16T21:18:01;22.60;61.20
36690;DHT22;22676;51.120;3.702;2022-10-16T21:20:52;22.60;61.70
36690;DHT22;22676;51.120;3.702;2022-10-16T21:23:43;22.60;61.80
36690;DHT22;22676;51.120;3.702;2022-10-16T21:26:34;22.70;61.90
36690;DHT22;22676;51.120;3.702;2022-10-16T21:29:25;22.80;62.00
36690;DHT22;22676;51.120;3.702;2022-10-16T21:32:16;22.80;61.60
36690;DHT22;22676;51.120;3.702;2022-10-16T21:35:07;22.80;61.40
36690;DHT22;22676;51.120;3.702;2022-10-16T21:37:58;22.80;61.20
36690;DHT22;22676;51.120;3.702;2022-10-16T21:40:49;22.80;61.20
36690;DHT22;22676;51.120;3.702;2022-10-16T21:43:40;22.80;61.80
36690;DHT22;22676;51.120;3.702;2022-10-16T21:46:32;22.80;61.60
36690;DHT22;22676;51.120;3.702;2022-10-16T21:49:23;22.80;61.50
36690;DHT22;22676;51.120;3.702;2022-10-16T21:52:14;22.80;61.50
36690;DHT22;22676;51.120;3.702;2022-10-16T21:55:05;22.80;61.40
36690;DHT22;22676;51.120;3.702;2022-10-16T21:57:57;22.80;61.70
36690;DHT22;22676;51.120;3.702;2022-10-16T22:03:57;22.80;61.30
36690;DHT22;22676;51.120;3.702;2022-10-16T22:06:48;22.80;61.40
36690;DHT22;22676;51.120;3.702;2022-10-16T22:09:39;22.80;61.30
36690;DHT22;22676;51.120;3.702;2022-10-16T22:12:30;22.80;61.30
36690;DHT22;22676;51.120;3.702;2022-10-16T22:15:21;22.80;60.60
36690;DHT22;22676;51.120;3.702;2022-10-16T22:18:12;22.70;60.70
36690;DHT22;22676;51.120;3.702;2022-10-16T22:21:07;22.70;61.50
36690;DHT22;22676;51.120;3.702;2022-10-16T22:23:58;22.60;61.60
36690;DHT22;22676;51.120;3.702;2022-10-16T22:26:49;22.70;61.50
36690;DHT22;22676;51.120;3.702;2022-10-16T22:29:40;22.70;61.50
36690;DHT22;22676;51.120;3.702;2022-10-16T22:32:31;22.70;61.40
36690;DHT22;22676;51.120;3.702;2022-10-16T22:35:22;22.70;61.50
36690;DHT22;22676;51.120;3.702;2022-10-16T22:38:13;22.70;61.20
36690;DHT22;22676;51.120;3.702;2022-10-16T22:41:05;22.70;61.20
36690;DHT22;22676;51.120;3.702;2022-10-16T22:43:56;22.70;61.40
36690;DHT22;22676;51.120;3.702;2022-10-16T22:46:47;22.70;61.30
36690;DHT22;22676;51.120;3.702;2022-10-16T22:52:48;22.80;61.00
36690;DHT22;22676;51.120;3.702;2022-10-16T22:55:38;22.80;61.00
36690;DHT22;22676;51.120;3.702;2022-10-16T22:58:29;22.80;61.10
36690;DHT22;22676;51.120;3.702;2022-10-16T23:01:31;22.80;61.20
36690;DHT22;22676;51.120;3.702;2022-10-16T23:04:36;22.80;61.10
36690;DHT22;22676;51.120;3.702;2022-10-16T23:07:26;22.80;61.10
36690;DHT22;22676;51.120;3.702;2022-10-16T23:10:17;22.80;61.10
36690;DHT22;22676;51.120;3.702;2022-10-16T23:13:08;22.80;61.10
36690;DHT22;22676;51.120;3.702;2022-10-16T23:15:59;22.80;60.60
36690;DHT22;22676;51.120;3.702;2022-10-16T23:18:50;22.70;60.70
36690;DHT22;22676;51.120;3.702;2022-10-16T23:21:41;22.60;61.40
36690;DHT22;22676;51.120;3.702;2022-10-16T23:24:32;22.60;61.60
36690;DHT22;22676;51.120;3.702;2022-10-16T23:27:23;22.60;61.50
36690;DHT22;22676;51.120;3.702;2022-10-16T23:30:14;22.60;61.50
36690;DHT22;22676;51.120;3.702;2022-10-16T23:33:05;22.60;61.40
36690;DHT22;22676;51.120;3.702;2022-10-16T23:35:56;22.70;61.40
36690;DHT22;22676;51.120;3.702;2022-10-16T23:38:47;22.70;61.30
36690;DHT22;22676;51.120;3.702;2022-10-16T23:41:38;22.70;61.50
36690;DHT22;22676;51.120;3.702;2022-10-16T23:44:29;22.60;61.40
36690;DHT22;22676;51.120;3.702;2022-10-16T23:47:20;22.60;61.40
36690;DHT22;22676;51.120;3.702;2022-10-16T23:50:11;22.70;61.60
36690;DHT22;22676;51.120;3.702;2022-10-16T23:53:02;22.60;61.40
36690;DHT22;22676;51.120;3.702;2022-10-16T23:55:53;22.60;61.50
36690;DHT22;22676;51.120;3.702;2022-10-16T23:58:44;22.60;61.60
